createdAt,value
2019-01-10T00:00:18.297Z,92.20
2019-01-10T00:03:23.497Z,92.10
2019-01-10T00:06:28.599Z,92.30
2019-01-10T00:09:33.683Z,92.30
2019-01-10T00:12:39.562Z,92.40
2019-01-10T00:15:45.041Z,92.40
2019-01-10T00:18:50.152Z,92.30
2019-01-10T00:21:55.257Z,92.30
2019-01-10T00:25:00.333Z,92.30
2019-01-10T00:28:05.443Z,92.30
2019-01-10T00:31:10.514Z,92.40
2019-01-10T00:34:15.534Z,92.30
2019-01-10T00:37:20.592Z,92.20
2019-01-10T00:40:25.733Z,92.10
2019-01-10T00:43:30.698Z,91.90
2019-01-10T00:46:35.795Z,91.90
2019-01-10T00:49:40.824Z,92.10
2019-01-10T00:52:45.931Z,92.10
2019-01-10T00:55:51.011Z,91.90
2019-01-10T00:58:56.047Z,92.00
2019-01-10T01:02:01.141Z,92.10
2019-01-10T01:05:08.330Z,92.10
2019-01-10T01:08:13.386Z,92.30
2019-01-10T01:11:18.462Z,92.30
2019-01-10T01:14:23.615Z,92.40
2019-01-10T01:17:28.647Z,92.80
2019-01-10T01:20:33.722Z,92.20
2019-01-10T01:23:38.831Z,92.00
2019-01-10T01:26:43.928Z,92.00
2019-01-10T01:29:48.953Z,92.10
2019-01-10T01:32:54.266Z,92.20
2019-01-10T01:35:59.209Z,92.30
2019-01-10T01:39:06.325Z,92.20
2019-01-10T01:42:11.419Z,92.20
2019-01-10T01:45:17.767Z,92.20
2019-01-10T01:48:22.811Z,92.10
2019-01-10T01:51:27.925Z,92.20
2019-01-10T01:54:33.054Z,92.20
2019-01-10T01:57:38.227Z,92.00
2019-01-10T02:00:43.338Z,91.80
2019-01-10T02:03:48.327Z,92.10
2019-01-10T02:06:53.440Z,91.80
2019-01-10T02:09:58.496Z,91.50
2019-01-10T02:13:03.640Z,91.50
2019-01-10T02:16:08.786Z,91.50
2019-01-10T02:19:13.828Z,91.50
2019-01-10T02:22:19.022Z,91.60
2019-01-10T02:25:24.156Z,91.80
2019-01-10T02:28:29.262Z,91.90
2019-01-10T02:31:34.386Z,91.80
2019-01-10T02:34:39.420Z,91.80
2019-01-10T02:37:44.558Z,91.90
2019-01-10T02:40:49.739Z,91.90
2019-01-10T02:43:54.804Z,91.80
2019-01-10T02:46:59.747Z,91.70
2019-01-10T02:50:06.004Z,91.70
2019-01-10T02:53:11.104Z,91.60
2019-01-10T02:56:16.224Z,91.50
2019-01-10T02:59:21.365Z,91.30
2019-01-10T03:02:26.541Z,91.40
2019-01-10T03:05:31.676Z,91.70
2019-01-10T03:08:36.807Z,91.40
2019-01-10T03:11:41.854Z,91.20
2019-01-10T03:14:46.944Z,91.10
2019-01-10T03:17:52.064Z,91.10
2019-01-10T03:20:57.206Z,91.00
2019-01-10T03:24:02.338Z,91.20
2019-01-10T03:27:07.434Z,91.10
2019-01-10T03:30:14.167Z,91.00
2019-01-10T03:33:19.309Z,91.00
2019-01-10T03:36:24.433Z,91.00
2019-01-10T03:39:29.583Z,91.00
2019-01-10T03:42:34.734Z,91.10
2019-01-10T03:45:39.842Z,91.30
2019-01-10T03:48:45.182Z,91.30
2019-01-10T03:51:50.238Z,91.50
2019-01-10T03:54:55.441Z,91.30
2019-01-10T03:58:00.481Z,91.40
2019-01-10T04:01:12.939Z,91.30
2019-01-10T04:04:18.039Z,91.40
2019-01-10T04:07:23.083Z,91.40
2019-01-10T04:10:28.204Z,91.40
2019-01-10T04:13:33.321Z,91.40
2019-01-10T04:16:38.412Z,91.40
2019-01-10T04:19:43.557Z,91.30
2019-01-10T04:22:48.661Z,91.30
2019-01-10T04:25:53.805Z,91.30
2019-01-10T04:28:58.837Z,91.30
2019-01-10T04:32:03.897Z,91.30
2019-01-10T04:35:08.992Z,91.60
2019-01-10T04:38:14.107Z,91.20
2019-01-10T04:41:19.210Z,91.20
2019-01-10T04:44:24.326Z,91.60
2019-01-10T04:47:29.435Z,91.30
2019-01-10T04:50:34.501Z,91.20
2019-01-10T04:53:39.614Z,91.10
2019-01-10T04:56:44.727Z,91.10
2019-01-10T04:59:49.877Z,90.90
2019-01-10T05:02:55.098Z,90.90
2019-01-10T05:06:00.280Z,90.90
2019-01-10T05:09:07.533Z,91.00
2019-01-10T05:12:12.548Z,91.10
2019-01-10T05:15:17.885Z,91.10
2019-01-10T05:18:22.964Z,90.90
2019-01-10T05:21:28.132Z,91.00
2019-01-10T05:24:33.234Z,91.20
2019-01-10T05:27:38.361Z,91.20
2019-01-10T05:30:43.504Z,91.10
2019-01-10T05:33:48.571Z,91.00
2019-01-10T05:36:53.710Z,91.00
2019-01-10T05:39:58.841Z,91.10
2019-01-10T05:43:03.863Z,91.20
2019-01-10T05:46:09.191Z,90.90
2019-01-10T05:49:14.492Z,90.90
2019-01-10T05:52:19.951Z,91.10
2019-01-10T05:55:25.159Z,91.00
2019-01-10T05:58:30.360Z,91.00
2019-01-10T06:01:36.228Z,91.10
2019-01-10T06:04:41.716Z,91.10
2019-01-10T06:07:47.025Z,91.10
2019-01-10T06:10:52.336Z,91.20
2019-01-10T06:13:57.647Z,91.20
2019-01-10T06:17:02.836Z,91.10
2019-01-10T06:20:09.336Z,91.00
2019-01-10T06:23:14.339Z,91.00
2019-01-10T06:26:19.440Z,91.00
2019-01-10T06:29:24.483Z,90.90
2019-01-10T06:32:29.522Z,90.80
2019-01-10T06:35:34.637Z,90.80
2019-01-10T06:38:39.753Z,90.70
2019-01-10T06:41:44.787Z,90.60
2019-01-10T06:44:49.924Z,90.40
2019-01-10T06:47:55.102Z,90.40
2019-01-10T06:51:00.140Z,90.50
2019-01-10T06:54:05.345Z,90.40
2019-01-10T06:57:10.413Z,90.50
2019-01-10T07:00:20.680Z,90.40
2019-01-10T07:03:25.787Z,90.50
2019-01-10T07:06:37.863Z,90.30
2019-01-10T07:09:42.965Z,90.10
2019-01-10T07:12:47.937Z,90.40
2019-01-10T07:15:53.267Z,90.10
2019-01-10T07:18:58.357Z,90.30
2019-01-10T07:22:03.480Z,90.40
2019-01-10T07:25:08.692Z,90.60
2019-01-10T07:28:29.038Z,90.40
2019-01-10T07:31:34.238Z,90.40
2019-01-10T07:34:39.556Z,90.50
2019-01-10T07:37:49.678Z,90.40
2019-01-10T07:40:54.790Z,90.40
2019-01-10T07:44:00.429Z,90.40
2019-01-10T07:47:05.673Z,90.30
2019-01-10T07:50:10.792Z,90.30
2019-01-10T07:53:16.236Z,90.20
2019-01-10T07:56:21.643Z,90.20
2019-01-10T07:59:27.019Z,90.40
2019-01-10T08:02:32.311Z,90.50
2019-01-10T08:05:37.626Z,90.40
2019-01-10T08:08:42.859Z,90.50
2019-01-10T08:11:47.988Z,90.50
2019-01-10T08:14:53.023Z,90.40
2019-01-10T08:17:58.142Z,90.20
2019-01-10T08:21:03.280Z,90.20
2019-01-10T08:24:08.386Z,90.10
2019-01-10T08:27:13.503Z,90.00
2019-01-10T08:30:23.350Z,89.80
2019-01-10T08:33:28.467Z,89.60
2019-01-10T08:36:33.488Z,89.50
2019-01-10T08:39:38.612Z,89.40
2019-01-10T08:42:43.792Z,89.10
2019-01-10T08:45:48.983Z,89.40
2019-01-10T08:48:54.028Z,88.40
2019-01-10T08:51:59.139Z,88.30
2019-01-10T08:55:04.631Z,88.10
2019-01-10T08:58:09.740Z,88.00
2019-01-10T09:01:14.855Z,87.70
2019-01-10T09:04:19.972Z,87.00
2019-01-10T09:07:25.070Z,87.00
2019-01-10T09:10:32.132Z,86.50
2019-01-10T09:13:37.238Z,86.50
2019-01-10T09:16:42.359Z,86.00
2019-01-10T09:19:47.496Z,86.00
2019-01-10T09:22:52.603Z,85.60
2019-01-10T09:25:58.032Z,85.40
2019-01-10T09:29:03.150Z,85.40
2019-01-10T09:32:08.258Z,85.30
2019-01-10T09:35:13.355Z,85.30
2019-01-10T09:38:18.496Z,85.10
2019-01-10T09:41:23.675Z,84.80
2019-01-10T09:44:28.803Z,84.40
2019-01-10T09:47:33.904Z,84.10
2019-01-10T09:50:38.979Z,83.30
2019-01-10T09:53:44.013Z,83.90
2019-01-10T09:56:49.140Z,82.30
2019-01-10T09:59:54.231Z,82.70
2019-01-10T10:02:59.432Z,81.70
2019-01-10T10:06:07.854Z,81.40
2019-01-10T10:09:11.361Z,81.70
2019-01-10T10:12:16.499Z,81.80
2019-01-10T10:15:21.983Z,81.00
2019-01-10T10:18:27.044Z,81.30
2019-01-10T10:21:32.139Z,81.20
2019-01-10T10:24:38.449Z,80.70
2019-01-10T10:27:43.771Z,81.20
2019-01-10T10:30:48.874Z,81.00
2019-01-10T10:33:53.988Z,81.50
2019-01-10T10:36:59.095Z,81.30
2019-01-10T10:40:05.559Z,81.60
2019-01-10T10:43:10.660Z,81.20
2019-01-10T10:46:15.781Z,81.00
2019-01-10T10:49:23.153Z,81.40
2019-01-10T10:52:28.287Z,81.20
2019-01-10T10:55:33.423Z,81.60
2019-01-10T10:58:38.458Z,82.10
2019-01-10T11:01:43.864Z,82.50
2019-01-10T11:04:48.963Z,83.00
2019-01-10T11:07:54.077Z,83.60
2019-01-10T11:11:00.979Z,83.80
2019-01-10T11:14:06.094Z,84.30
2019-01-10T11:17:11.199Z,85.40
2019-01-10T11:20:18.289Z,85.20
2019-01-10T11:23:23.556Z,86.00
2019-01-10T11:26:28.680Z,86.50
2019-01-10T11:29:33.779Z,86.50
2019-01-10T11:32:38.888Z,86.10
2019-01-10T11:35:44.021Z,85.70
2019-01-10T11:38:49.113Z,85.70
2019-01-10T11:41:54.161Z,85.50
2019-01-10T11:44:59.189Z,85.20
2019-01-10T11:48:04.323Z,85.30
2019-01-10T11:51:09.427Z,85.30
2019-01-10T11:54:14.540Z,84.70
2019-01-10T11:57:19.842Z,84.20
2019-01-10T12:00:29.871Z,84.50
2019-01-10T12:03:35.068Z,84.20
2019-01-10T12:06:40.116Z,84.00
2019-01-10T12:09:45.171Z,84.00
2019-01-10T12:12:50.273Z,84.00
2019-01-10T12:15:55.391Z,83.80
2019-01-10T12:19:00.483Z,83.50
2019-01-10T12:22:05.620Z,83.90
2019-01-10T12:25:11.880Z,83.60
2019-01-10T12:28:17.092Z,83.90
2019-01-10T12:31:22.268Z,83.90
2019-01-10T12:34:27.487Z,84.10
2019-01-10T12:37:32.517Z,85.10
2019-01-10T12:40:37.666Z,86.00
2019-01-10T12:43:42.792Z,86.70
2019-01-10T12:46:47.932Z,86.60
2019-01-10T12:49:53.040Z,87.00
2019-01-10T12:52:58.266Z,87.50
2019-01-10T12:56:03.404Z,87.50
2019-01-10T12:59:08.515Z,87.70
2019-01-10T13:02:13.787Z,87.60
2019-01-10T13:05:19.005Z,88.00
2019-01-10T13:08:23.960Z,88.50
2019-01-10T13:11:29.076Z,88.00
2019-01-10T13:14:34.025Z,87.70
2019-01-10T13:17:39.139Z,87.90
2019-01-10T13:20:44.175Z,87.70
2019-01-10T13:23:49.393Z,86.80
2019-01-10T13:26:54.503Z,87.20
2019-01-10T13:29:59.530Z,86.00
2019-01-10T13:33:04.745Z,86.30
2019-01-10T13:36:09.852Z,86.20
2019-01-10T13:39:14.932Z,85.70
2019-01-10T13:42:19.961Z,85.10
2019-01-10T13:45:25.194Z,84.50
2019-01-10T13:48:30.496Z,84.10
2019-01-10T13:51:35.612Z,84.50
2019-01-10T13:54:40.781Z,84.70
2019-01-10T13:57:45.887Z,84.20
2019-01-10T14:00:51.198Z,84.40
2019-01-10T14:03:56.233Z,84.10
2019-01-10T14:07:01.342Z,83.40
2019-01-10T14:10:07.540Z,82.80
2019-01-10T14:13:13.479Z,81.40
2019-01-10T14:16:18.618Z,80.60
2019-01-10T14:19:23.744Z,79.90
2019-01-10T14:22:28.760Z,79.10
2019-01-10T14:25:34.263Z,78.90
2019-01-10T14:28:39.385Z,78.70
2019-01-10T14:31:44.587Z,78.00
2019-01-10T14:34:49.671Z,78.00
2019-01-10T14:37:54.787Z,76.80
2019-01-10T14:40:59.929Z,76.80
2019-01-10T14:44:05.289Z,76.70
2019-01-10T14:47:10.349Z,76.20
2019-01-10T14:50:16.453Z,76.00
2019-01-10T14:53:21.571Z,75.60
2019-01-10T14:56:26.890Z,75.70
2019-01-10T14:59:31.997Z,75.70
2019-01-10T15:02:37.123Z,75.40
2019-01-10T15:05:42.225Z,75.20
2019-01-10T15:08:47.283Z,75.80
2019-01-10T15:11:52.252Z,76.20
2019-01-10T15:14:57.373Z,76.50
2019-01-10T15:18:02.487Z,76.30
2019-01-10T15:21:07.586Z,76.30
2019-01-10T15:24:12.634Z,76.20
2019-01-10T15:27:17.689Z,76.30
2019-01-10T15:30:24.523Z,76.40
2019-01-10T15:33:29.567Z,76.70
2019-01-10T15:36:34.703Z,76.90
2019-01-10T15:39:40.125Z,77.30
2019-01-10T15:42:45.361Z,77.70
2019-01-10T15:45:50.588Z,78.50
2019-01-10T15:48:55.706Z,79.10
2019-01-10T15:52:00.859Z,79.60
2019-01-10T15:55:06.468Z,80.20
2019-01-10T15:58:11.568Z,80.50
2019-01-10T16:01:16.515Z,80.60
2019-01-10T16:04:21.665Z,80.90
2019-01-10T16:07:27.085Z,80.60
2019-01-10T16:10:32.258Z,79.50
2019-01-10T16:13:37.349Z,78.40
2019-01-10T16:16:42.468Z,78.20
2019-01-10T16:19:47.559Z,78.50
2019-01-10T16:22:52.879Z,78.70
2019-01-10T16:25:57.959Z,78.90
2019-01-10T16:29:03.098Z,78.50
2019-01-10T16:32:08.223Z,78.30
2019-01-10T16:35:13.347Z,78.00
2019-01-10T16:38:18.454Z,77.90
2019-01-10T16:41:23.510Z,77.90
2019-01-10T16:44:28.628Z,77.90
2019-01-10T16:47:33.731Z,78.10
2019-01-10T16:50:38.769Z,78.00
2019-01-10T16:53:43.807Z,78.30
2019-01-10T16:56:48.839Z,78.60
2019-01-10T16:59:53.946Z,78.70
2019-01-10T17:02:59.081Z,78.80
2019-01-10T17:06:04.731Z,78.70
2019-01-10T17:09:09.868Z,78.40
2019-01-10T17:12:14.995Z,78.40
2019-01-10T17:15:21.485Z,78.20
2019-01-10T17:18:26.728Z,77.70
2019-01-10T17:21:31.828Z,77.40
2019-01-10T17:24:36.960Z,77.00
2019-01-10T17:27:42.055Z,76.20
2019-01-10T17:30:47.184Z,75.90
2019-01-10T17:33:52.166Z,76.20
2019-01-10T17:36:57.269Z,76.20
2019-01-10T17:40:02.381Z,75.60
2019-01-10T17:43:07.855Z,75.00
2019-01-10T17:46:12.964Z,75.00
2019-01-10T17:49:18.064Z,74.90
2019-01-10T17:52:25.102Z,74.90
2019-01-10T17:55:29.905Z,74.80
2019-01-10T17:58:34.952Z,75.30
2019-01-10T18:01:41.341Z,74.50
2019-01-10T18:04:46.441Z,74.40
2019-01-10T18:07:51.545Z,74.20
2019-01-10T18:10:56.587Z,74.30
2019-01-10T18:14:01.727Z,74.20
2019-01-10T18:17:06.843Z,73.80
2019-01-10T18:20:18.459Z,73.60
2019-01-10T18:23:23.601Z,73.50
2019-01-10T18:26:28.704Z,73.20
2019-01-10T18:29:33.808Z,73.40
2019-01-10T18:32:38.928Z,73.70
2019-01-10T18:35:44.046Z,72.90
2019-01-10T18:38:49.015Z,72.90
2019-01-10T18:41:54.059Z,72.40
2019-01-10T18:44:59.037Z,72.40
2019-01-10T18:48:05.051Z,72.40
2019-01-10T18:51:10.181Z,72.50
2019-01-10T18:54:15.728Z,72.80
2019-01-10T18:57:20.882Z,73.90
2019-01-10T19:00:28.231Z,73.50
2019-01-10T19:03:33.356Z,73.80
2019-01-10T19:06:38.313Z,74.30
2019-01-10T19:09:43.412Z,75.00
2019-01-10T19:12:48.602Z,73.80
2019-01-10T19:15:53.651Z,73.40
2019-01-10T19:18:58.779Z,73.50
2019-01-10T19:22:03.908Z,73.20
2019-01-10T19:25:09.029Z,73.30
2019-01-10T19:28:13.989Z,73.10
2019-01-10T19:31:18.985Z,73.40
2019-01-10T19:34:23.952Z,73.40
2019-01-10T19:37:29.038Z,73.10
2019-01-10T19:40:34.226Z,72.90
2019-01-10T19:43:39.375Z,72.70
2019-01-10T19:46:44.495Z,72.90
2019-01-10T19:49:49.480Z,73.00
2019-01-10T19:52:54.708Z,72.70
2019-01-10T19:55:59.984Z,71.60
2019-01-10T19:59:05.110Z,71.20
2019-01-10T20:02:10.267Z,70.90
2019-01-10T20:05:15.387Z,70.10
2019-01-10T20:08:20.601Z,69.00
2019-01-10T20:11:25.705Z,66.70
2019-01-10T20:14:30.860Z,66.10
2019-01-10T20:17:35.887Z,65.70
2019-01-10T20:20:42.134Z,65.80
2019-01-10T20:23:47.251Z,65.60
2019-01-10T20:26:52.371Z,65.70
2019-01-10T20:29:57.415Z,66.00
2019-01-10T20:33:02.789Z,66.00
2019-01-10T20:36:08.208Z,66.00
2019-01-10T20:39:13.328Z,66.40
2019-01-10T20:42:18.487Z,66.50
2019-01-10T20:45:23.682Z,66.40
2019-01-10T20:48:29.483Z,66.40
2019-01-10T20:51:34.616Z,66.70
2019-01-10T20:54:39.721Z,66.70
2019-01-10T20:57:44.858Z,67.00
2019-01-10T21:00:49.956Z,67.50
2019-01-10T21:03:55.003Z,67.90
2019-01-10T21:07:00.106Z,67.80
2019-01-10T21:10:05.826Z,68.00
2019-01-10T21:13:10.915Z,67.40
2019-01-10T21:16:16.033Z,67.40
2019-01-10T21:19:21.079Z,67.50
2019-01-10T21:26:36.703Z,67.60
2019-01-10T21:29:41.814Z,67.30
2019-01-10T21:32:47.463Z,67.30
2019-01-10T21:35:52.549Z,67.70
2019-01-10T21:38:57.592Z,67.90
2019-01-10T21:42:02.604Z,68.30
2019-01-10T21:45:10.554Z,68.80
2019-01-10T21:48:15.654Z,69.00
2019-01-10T21:51:20.686Z,68.90
2019-01-10T21:54:27.347Z,68.80
2019-01-10T21:57:32.399Z,69.40
2019-01-10T22:00:37.478Z,69.20
2019-01-10T22:03:42.499Z,69.40
2019-01-10T22:06:47.520Z,69.30
2019-01-10T22:09:53.327Z,69.10
2019-01-10T22:12:58.840Z,69.10
2019-01-10T22:16:04.189Z,69.10
2019-01-10T22:19:09.593Z,69.30
2019-01-10T22:22:14.606Z,69.10
2019-01-10T22:25:20.053Z,69.10
2019-01-10T22:28:25.385Z,69.10
2019-01-10T22:31:30.577Z,69.20
2019-01-10T22:34:36.166Z,69.00
2019-01-10T22:37:41.351Z,68.80
2019-01-10T22:40:46.939Z,68.20
2019-01-10T22:43:52.007Z,68.50
2019-01-10T22:46:57.043Z,68.70
2019-01-10T22:50:02.066Z,68.20
2019-01-10T22:53:07.166Z,67.60
2019-01-10T22:56:12.242Z,67.70
2019-01-10T22:59:17.487Z,68.00
2019-01-10T23:02:22.692Z,68.30
2019-01-10T23:05:27.774Z,68.50
2019-01-10T23:08:36.018Z,68.30
2019-01-10T23:11:41.027Z,68.60
2019-01-10T23:14:46.166Z,68.80
2019-01-10T23:17:51.969Z,68.80
2019-01-10T23:20:59.626Z,68.50
2019-01-10T23:24:12.767Z,68.60
2019-01-10T23:27:17.867Z,69.00
2019-01-10T23:30:46.647Z,68.90
2019-01-10T23:33:51.692Z,69.00
2019-01-10T23:36:56.801Z,68.90
2019-01-10T23:40:01.731Z,68.50
2019-01-10T23:43:07.035Z,68.70
2019-01-10T23:46:12.127Z,69.10
2019-01-10T23:49:17.222Z,69.00
2019-01-10T23:52:22.606Z,68.60
2019-01-10T23:55:27.903Z,68.10
2019-01-10T23:58:32.857Z,67.80
